首页
METAR-TAF:

METAR-TAF

机场 :

索尔诺克, 匈牙利

纬度: 47-07N, 经度: 020-14E, 海拔: 89米

当前天气观测

该预报发布于17分钟前的03:45 UTC
风速4节,风向东南
温度 18°C
湿度 77%
气压 1014 hPa
能见度10公里或以上
1500米以下无云,无积雨云

METAR: LHSN 250345Z 13004KT CAVOK 18/14 Q1014 NOSIG RMK BLU

时间: 06:02 (04:02 UTC)

预报

该预报发布于1小时和47分钟前的02:15 UTC
预报有效从25日的 03点(UTC)到 25日的 12点(UTC)
风速6节,风向东南
能见度10公里或以上
1500米以下无云,无积雨云
成为
从 25日的 06点(UTC)到 25日的 09点(UTC)
风速11节,风向南转南东
短暂存在
从 25日的 09点(UTC)到 25日的 12点(UTC)
风速11节,风向南转南东,有时为21节阵风

TAF: LHSN 250215Z 2503/2512 14006KT CAVOK BECMG 2506/2509 16011KT TEMPO 2509/2512 16011G21KT

超过4000个机场的气象观测和天气预报(METAR&TAF报告)。

可查询的气象台以黄色和红色小点在地图上表示。

将鼠标移到小点上方,可查看气象台名称。

然后点击查看天气观测和预报。

如需切换地图:点击带黑十字的绿色按钮放大地图;点击带横线的绿色按钮缩小地图;或者点击绿色箭头查看邻近地区的地图。


METAR-TAF: